• Join FlightAware (Why Join?)
  • Login
  • US Flag 
12:25PM EDT


 

Airport Tracker/Info


-or-


 

Live Flight TrackerFlight Track Log ✈ N6521Y ✈ 09-May-2013 ✈ KGEG - CYLW

Flight Track Log - Related Links

Times and Time Zones

All times are in EDT time to prevent confusion due to time zone crossing. See the N6521Y flight status page for this flight to view local times or setup timezone preferences in your user account.

Time Position Orientation Groundspeed Altitude Reporting Facility
EDT Latitude Longitude Course Direction KTS MPH feet Rate Location/Type
07:21PM 47.7258 -117.5933 333° Northwest 111 128 6,300  Level Seattle Center
07:22PM 47.7508 -117.6156 329° Northwest 106 122 6,900 600 Climbing Seattle Center
07:24PM 47.8109 -117.6754 332° Northwest  Level FlightAware Approximate
07:24PM 47.7781 -117.6392 330° Northwest 112 129 7,600  Level Seattle Center
07:25PM 47.8427 -117.7008 332° Northwest  Level FlightAware Approximate
07:25PM 47.8044 -117.6628 329° Northwest 111 128 8,400  Level Seattle Center
07:26PM 47.8745 -117.7262 332° Northwest  Level FlightAware Approximate
07:26PM 47.8297 -117.6864 328° Northwest 109 125 9,000  Level Seattle Center
07:27PM 47.9066 -117.7507 333° Northwest  Level FlightAware Approximate
07:27PM 47.8556 -117.7075 331° Northwest 106 122 9,500  Level Seattle Center
07:28PM 47.8875 -117.7378 328° Northwest 112 129 10,200 600 Climbing Seattle Center
07:29PM 47.9125 -117.7592 330° Northwest 107 123 10,800 480 Climbing Seattle Center
07:30PM 47.9381 -117.7750 337° Northwest 100 115 11,200 480 Climbing Seattle Center
07:31PM 47.9667 -117.7808 352° North 105 121 11,800 360 Climbing Seattle Center
07:32PM 47.9872 -117.7425 51° Northeast 118 136 12,000 120 Climbing Seattle Center
07:33PM 48.0089 -117.6936 56° Northeast 137 158 12,100  Climbing Seattle Center
07:34PM 48.0314 -117.6403 58° Northeast 150 173 12,000  Descending Seattle Center
07:35PM 48.0619 -117.5967 44° Northeast 151 174 12,100  Climbing Seattle Center
07:36PM 48.0931 -117.5497 45° Northeast 158 182 12,100 -60 Level Seattle Center
07:37PM 48.1297 -117.5158 32° Northeast 156 180 12,000 -60 Descending Seattle Center
07:38PM 48.1647 -117.4794 35° Northeast 153 176 12,000  Level Seattle Center
07:39PM 48.1981 -117.4422 37° Northeast 151 174 12,100  Climbing Seattle Center
07:40PM 48.2406 -117.3994 34° Northeast 155 178 12,000  Descending Seattle Center
07:41PM 48.2781 -117.3589 36° Northeast 164 189 12,100  Climbing Seattle Center
07:42PM 48.3156 -117.3211 34° Northeast 163 188 12,100 -60 Level Seattle Center
07:43PM 48.3531 -117.2825 34° Northeast 163 188 12,000 -60 Descending Seattle Center
07:44PM 48.3878 -117.2397 39° Northeast 162 186 12,000  Level Seattle Center
07:45PM 48.4214 -117.1975 40° Northeast 161 185 12,100  Climbing Seattle Center
07:46PM 48.4550 -117.1589 37° Northeast 157 181 12,100 -60 Level Seattle Center
07:47PM 48.4906 -117.1192 37° Northeast 157 181 12,000  Descending Seattle Center
07:48PM 48.5258 -117.0786 37° Northeast 160 184 12,200  Climbing Seattle Center
07:49PM 48.5617 -117.0344 39° Northeast 164 189 12,000 -120 Descending Seattle Center
07:50PM 48.5978 -116.9931 37° Northeast 163 188 12,000  Level Seattle Center
07:51PM 48.6339 -116.9500 38° Northeast 166 191 12,000  Level Seattle Center
07:52PM 48.6764 -116.9014 37° Northeast 161 185 12,100  Climbing Seattle Center
07:53PM 48.7111 -116.8614 37° Northeast 159 183 12,100 -60 Level Seattle Center
07:54PM 48.7469 -116.8181 39° Northeast 162 186 12,000  Descending Seattle Center
07:55PM 48.7828 -116.7775 37° Northeast 162 186 12,100  Climbing Seattle Center
07:56PM 48.8175 -116.7350 39° Northeast 161 185 12,100 -60 Level Seattle Center
07:57PM 48.8528 -116.6939 37° Northeast 161 185 12,000 -60 Descending Seattle Center
07:58PM 48.8931 -116.6450 39° Northeast 166 191 12,000  Level Seattle Center
07:59PM 48.9294 -116.6019 38° Northeast 167 192 12,000 60 Level Seattle Center
08:00PM 48.9167 -116.5500 111° Southeast 170 196 12,100  Climbing Vancouver Center
08:01PM 48.9667 -116.5667 348° North 160 184 12,000 -60 Descending Vancouver Center
08:02PM 49.0000 -116.6167 315° West 150 173 12,000  Level Vancouver Center
08:03PM 49.0167 -116.5667 63° Northeast 150 173 12,100  Climbing Vancouver Center
08:03PM 49.0639 -116.6250 321° Northwest 166 191 12,000 -120 Descending Seattle Center
08:04PM 49.0667 -116.6167 63° Northeast 140 161 12,000  Level Vancouver Center
08:04PM 49.0814 -116.6797 290° West 147 169 12,000  Level Seattle Center
08:07PM 49.1000 -116.7833 285° West 150 173 12,000  Level Vancouver Center
08:08PM 49.1167 -116.8333 297° West 150 173 12,000  Level Vancouver Center
08:09PM 49.1500 -116.9000 307° West 150 173 12,100  Climbing Vancouver Center
08:10PM 49.1667 -116.9500 297° West 160 184 12,100  Level Vancouver Center
08:11PM 49.1833 -117.0000 297° West 140 161 12,100  Level Vancouver Center
08:12PM 49.2000 -117.0500 297° West 130 150 12,100  Level Vancouver Center
08:13PM 49.2333 -117.1167 307° West 150 173 12,100  Level Vancouver Center
08:14PM 49.2500 -117.1667 297° West 150 173 12,100  Level Vancouver Center
08:17PM 49.3000 -117.3500 293° West 140 161 12,100  Level Vancouver Center
08:18PM 49.3333 -117.4167 308° West 150 173 12,100  Level Vancouver Center
08:19PM 49.3333 -117.4667 270° West 150 173 12,200  Climbing Vancouver Center
08:20PM 49.3500 -117.5167 297° West 150 173 12,200 -60 Level Vancouver Center
08:21PM 49.3667 -117.5667 297° West 140 161 12,100  Descending Vancouver Center
08:22PM 49.3833 -117.6333 291° West 150 173 12,200  Climbing Vancouver Center
08:23PM 49.4000 -117.6833 297° West 150 173 12,100  Descending Vancouver Center
08:24PM 49.4333 -117.7333 316° Northwest 160 184 12,200 -60 Climbing Vancouver Center
08:25PM 49.4500 -117.8167 287° West 160 184 12,000 -120 Descending Vancouver Center
08:26PM 49.4667 -117.8667 297° West 150 173 12,000  Level Vancouver Center
08:27PM 49.4833 -117.9167 297° West 150 173 12,100  Climbing Vancouver Center
08:28PM 49.5000 -117.9833 291° West 140 161 12,100  Level Vancouver Center
08:29PM 49.5333 -118.0333 316° Northwest 150 173 12,100 60 Level Vancouver Center
08:30PM 49.5500 -118.0833 297° West 150 173 12,300  Climbing Vancouver Center
08:31PM 49.5667 -118.1333 297° West 150 173 12,100 -120 Descending Vancouver Center
08:32PM 49.5833 -118.2000 291° West 150 173 12,100  Level Vancouver Center
08:33PM 49.6000 -118.2500 297° West 150 173 12,100  Level Vancouver Center
08:34PM 49.6000 -118.3167 270° West 150 173 12,100  Level Vancouver Center
08:35PM 49.6333 -118.3833 308° West 150 173 12,100  Level Vancouver Center
08:36PM 49.6500 -118.4333 297° West 150 173 12,100  Level Vancouver Center
08:37PM 49.6667 -118.4833 297° West 160 184 12,100 -300 Level Vancouver Center
08:38PM 49.6833 -118.5500 291° West 160 184 11,500 -720 Descending Vancouver Center
08:39PM 49.7000 -118.6000 297° West 170 196 10,700 -720 Descending Vancouver Center
08:40PM 49.7333 -118.6833 302° West 170 196 10,100 -300 Descending Vancouver Center
08:41PM 49.7667 -118.7500 308° West 170 196 10,100  Level Vancouver Center
08:42PM 49.7833 -118.8000 297° West 160 184 10,200  Climbing Vancouver Center
08:43PM 49.8000 -118.8833 287° West 160 184 10,100 -60 Descending Vancouver Center
08:44PM 49.8000 -118.9333 270° West 160 184 10,100  Level Vancouver Center
08:45PM 49.8000 -119.0167 270° West 150 173 10,100  Level Vancouver Center
08:46PM 49.8000 -119.0667 270° West 150 173 10,100 -300 Level Vancouver Center
08:47PM 49.8167 -119.1167 297° West 150 173 9,500 -1,200 Descending Vancouver Center
08:48PM 49.8167 -119.2000 270° West 180 207 7,800 -1,680 Descending Vancouver Center
08:49PM 49.8167 -119.3000 270° West 180 207 6,200 -1,680 Descending Vancouver Center
08:50PM 49.8333 -119.3500 297° West 180 207 4,500 -1,740 Descending Vancouver Center